createdAt,value
2018-05-16T00:00:37.819Z,12.72
2018-05-16T00:03:08.598Z,12.65
2018-05-16T00:05:39.404Z,12.62
2018-05-16T00:08:10.171Z,12.62
2018-05-16T00:10:40.980Z,12.64
2018-05-16T00:13:11.775Z,12.69
2018-05-16T00:15:42.576Z,12.76
2018-05-16T00:18:13.336Z,12.73
2018-05-16T00:20:44.129Z,12.70
2018-05-16T00:23:14.916Z,12.69
2018-05-16T00:25:45.745Z,12.64
2018-05-16T00:28:16.511Z,12.66
2018-05-16T00:30:47.296Z,12.62
2018-05-16T00:33:18.081Z,12.48
2018-05-16T00:35:48.916Z,12.45
2018-05-16T00:38:19.692Z,12.48
2018-05-16T00:40:50.513Z,12.37
2018-05-16T00:43:21.292Z,12.37
2018-05-16T00:45:52.099Z,12.36
2018-05-16T00:48:22.864Z,12.30
2018-05-16T00:51:05.958Z,12.29
2018-05-16T00:53:36.748Z,12.32
2018-05-16T00:56:07.532Z,12.37
2018-05-16T00:58:38.335Z,12.41
2018-05-16T01:01:09.130Z,12.39
2018-05-16T01:03:39.911Z,12.43
2018-05-16T01:06:10.703Z,12.50
2018-05-16T01:08:41.561Z,12.39
2018-05-16T01:11:12.448Z,12.35
2018-05-16T01:13:43.259Z,12.28
2018-05-16T01:16:14.041Z,12.32
2018-05-16T01:18:44.846Z,12.34
2018-05-16T01:21:15.662Z,12.30
2018-05-16T01:23:46.450Z,12.32
2018-05-16T01:26:17.339Z,12.21
2018-05-16T01:28:48.111Z,12.27
2018-05-16T01:31:18.895Z,12.15
2018-05-16T01:33:49.665Z,12.12
2018-05-16T01:36:20.468Z,12.06
2018-05-16T01:38:51.230Z,11.94
2018-05-16T01:41:22.019Z,12.02
2018-05-16T01:43:52.785Z,11.98
2018-05-16T01:46:23.558Z,11.91
2018-05-16T01:49:06.624Z,11.85
2018-05-16T01:51:37.399Z,11.88
2018-05-16T01:54:08.148Z,11.93
2018-05-16T01:56:38.943Z,11.92
2018-05-16T01:59:09.739Z,11.87
2018-05-16T02:01:40.506Z,11.85
2018-05-16T02:04:11.270Z,11.79
2018-05-16T02:06:42.059Z,11.79
2018-05-16T02:09:12.807Z,11.72
2018-05-16T02:11:43.583Z,11.76
2018-05-16T02:14:14.359Z,11.68
2018-05-16T02:16:45.143Z,11.70
2018-05-16T02:19:15.932Z,11.67
2018-05-16T02:21:46.709Z,11.69
2018-05-16T02:24:17.503Z,11.61
2018-05-16T02:26:48.288Z,11.57
2018-05-16T02:29:19.029Z,11.51
2018-05-16T02:31:49.837Z,11.54
2018-05-16T02:34:20.592Z,11.51
2018-05-16T02:36:51.389Z,11.51
2018-05-16T02:39:22.213Z,11.49
2018-05-16T02:41:53.020Z,11.50
2018-05-16T02:44:23.892Z,11.51
2018-05-16T02:46:54.723Z,11.55
2018-05-16T02:49:25.501Z,11.55
2018-05-16T02:51:56.311Z,11.61
2018-05-16T02:54:27.186Z,11.77
2018-05-16T02:56:57.928Z,11.75
2018-05-16T02:59:28.705Z,11.76
2018-05-16T03:01:59.498Z,11.79
2018-05-16T03:04:30.320Z,11.79
2018-05-16T03:07:01.108Z,11.76
2018-05-16T03:09:31.859Z,11.88
2018-05-16T03:12:02.669Z,11.85
2018-05-16T03:14:33.555Z,11.85
2018-05-16T03:17:04.368Z,11.91
2018-05-16T03:19:35.197Z,11.93
2018-05-16T03:22:05.989Z,11.89
2018-05-16T03:24:36.812Z,11.87
2018-05-16T03:27:07.617Z,11.87
2018-05-16T03:29:38.411Z,11.84
2018-05-16T03:32:09.211Z,11.82
2018-05-16T03:34:39.989Z,11.86
2018-05-16T03:37:10.773Z,11.82
2018-05-16T03:39:41.607Z,11.84
2018-05-16T03:42:12.399Z,11.97
2018-05-16T03:44:43.168Z,11.94
2018-05-16T03:47:14.022Z,11.99
2018-05-16T03:49:44.867Z,12.00
2018-05-16T03:52:15.674Z,12.03
2018-05-16T03:54:46.440Z,12.09
2018-05-16T03:57:29.456Z,12.09
2018-05-16T04:00:12.567Z,12.03
2018-05-16T04:02:55.732Z,12.18
2018-05-16T04:05:26.517Z,12.11
2018-05-16T04:07:57.324Z,12.16
2018-05-16T04:10:28.151Z,12.18
2018-05-16T04:12:58.951Z,12.17
2018-05-16T04:15:29.726Z,12.20
2018-05-16T04:18:00.543Z,12.32
2018-05-16T04:20:31.344Z,12.37
2018-05-16T04:23:02.208Z,12.39
2018-05-16T04:25:33.021Z,12.44
2018-05-16T04:28:03.906Z,12.53
2018-05-16T04:30:34.831Z,12.61
2018-05-16T04:33:05.669Z,12.59
2018-05-16T04:35:36.489Z,12.51
2018-05-16T04:38:07.294Z,12.44
2018-05-16T04:40:38.651Z,12.53
2018-05-16T04:43:09.501Z,12.58
2018-05-16T04:45:40.302Z,12.58
2018-05-16T04:48:11.104Z,12.73
2018-05-16T04:50:41.911Z,12.75
2018-05-16T04:53:13.065Z,12.76
2018-05-16T04:55:43.861Z,12.91
2018-05-16T04:58:14.692Z,12.90
2018-05-16T05:00:45.554Z,13.04
2018-05-16T05:03:16.371Z,12.97
2018-05-16T05:05:47.751Z,12.93
2018-05-16T05:08:18.615Z,13.03
2018-05-16T05:10:49.436Z,13.08
2018-05-16T05:13:20.216Z,13.26
2018-05-16T05:15:50.992Z,13.42
2018-05-16T05:18:21.911Z,13.49
2018-05-16T05:20:52.664Z,13.42
2018-05-16T05:23:23.478Z,13.72
2018-05-16T05:25:54.285Z,13.60
2018-05-16T05:28:27.101Z,13.56
2018-05-16T05:30:57.872Z,13.69
2018-05-16T05:33:28.673Z,13.60
2018-05-16T05:35:59.446Z,13.59
2018-05-16T05:38:30.248Z,13.40
2018-05-16T05:41:01.048Z,13.56
2018-05-16T05:43:31.867Z,13.72
2018-05-16T05:46:02.678Z,13.84
2018-05-16T05:48:33.574Z,13.82
2018-05-16T05:51:04.375Z,13.70
2018-05-16T05:53:35.401Z,13.59
2018-05-16T05:56:06.201Z,13.64
2018-05-16T05:58:37.041Z,13.71
2018-05-16T06:01:07.831Z,13.73
2018-05-16T06:03:38.617Z,13.72
2018-05-16T06:06:09.403Z,13.88
2018-05-16T06:08:40.244Z,13.94
2018-05-16T06:11:11.036Z,13.67
2018-05-16T06:13:41.875Z,13.65
2018-05-16T06:16:12.659Z,13.54
2018-05-16T06:18:43.511Z,13.60
2018-05-16T06:21:14.331Z,13.51
2018-05-16T06:23:45.186Z,13.32
2018-05-16T06:26:16.011Z,13.32
2018-05-16T06:28:46.827Z,13.18
2018-05-16T06:31:17.652Z,13.23
2018-05-16T06:33:48.488Z,13.21
2018-05-16T06:36:19.296Z,13.39
2018-05-16T06:38:50.099Z,13.17
2018-05-16T06:41:20.896Z,13.16
2018-05-16T06:43:51.713Z,13.08
2018-05-16T06:46:22.719Z,13.05
2018-05-16T06:48:53.619Z,12.94
2018-05-16T06:51:24.403Z,12.88
2018-05-16T06:53:55.281Z,12.73
2018-05-16T06:56:26.219Z,12.65
2018-05-16T06:58:57.022Z,12.73
2018-05-16T07:01:27.788Z,12.72
2018-05-16T07:03:58.617Z,12.66
2018-05-16T07:06:29.389Z,12.57
2018-05-16T07:09:00.228Z,12.66
2018-05-16T07:11:31.052Z,12.60
2018-05-16T07:14:01.904Z,12.58
2018-05-16T07:16:32.695Z,12.43
2018-05-16T07:19:03.511Z,12.61
2018-05-16T07:21:34.291Z,12.60
2018-05-16T07:24:05.106Z,12.69
2018-05-16T07:26:35.913Z,12.68
2018-05-16T07:29:06.703Z,12.86
2018-05-16T07:31:37.854Z,13.35
2018-05-16T07:34:08.671Z,13.63
2018-05-16T07:36:39.459Z,13.72
2018-05-16T07:39:10.264Z,14.24
2018-05-16T07:41:41.031Z,14.45
2018-05-16T07:44:11.815Z,14.31
2018-05-16T07:46:42.629Z,14.88
2018-05-16T07:49:13.556Z,14.94
2018-05-16T07:51:44.235Z,15.36
2018-05-16T07:54:15.068Z,15.29
2018-05-16T07:56:45.815Z,15.72
2018-05-16T07:59:16.721Z,16.41
2018-05-16T08:01:47.468Z,16.45
2018-05-16T08:04:18.303Z,16.64
2018-05-16T08:06:49.106Z,16.89
2018-05-16T08:09:19.938Z,16.80
2018-05-16T08:11:50.743Z,17.37
2018-05-16T08:14:21.534Z,17.99
2018-05-16T08:16:52.404Z,18.15
2018-05-16T08:19:23.251Z,17.95
2018-05-16T08:21:54.139Z,18.25
2018-05-16T08:24:24.813Z,18.43
2018-05-16T08:26:55.607Z,18.77
2018-05-16T08:29:26.412Z,19.16
2018-05-16T08:31:57.177Z,19.54
2018-05-16T08:34:27.983Z,19.25
2018-05-16T08:36:58.772Z,19.35
2018-05-16T08:39:29.591Z,19.78
2018-05-16T08:42:00.375Z,19.63
2018-05-16T08:44:31.196Z,19.58
2018-05-16T08:47:01.995Z,19.22
2018-05-16T08:49:32.794Z,19.24
2018-05-16T08:52:03.630Z,19.04
2018-05-16T08:54:34.443Z,19.11
2018-05-16T08:57:05.232Z,19.10
2018-05-16T08:59:36.040Z,19.43
2018-05-16T09:02:06.879Z,19.60
2018-05-16T09:04:37.672Z,19.62
2018-05-16T09:07:08.434Z,19.83
2018-05-16T09:09:39.223Z,19.66
2018-05-16T09:12:10.011Z,19.88
2018-05-16T09:14:40.832Z,19.84
2018-05-16T09:17:11.612Z,19.92
2018-05-16T09:19:42.405Z,19.52
2018-05-16T09:22:13.168Z,18.65
2018-05-16T09:24:43.961Z,18.15
2018-05-16T09:27:14.770Z,18.35
2018-05-16T09:29:45.582Z,18.49
2018-05-16T09:32:16.374Z,18.56
2018-05-16T09:34:47.167Z,18.37
2018-05-16T09:37:17.948Z,18.31
2018-05-16T09:39:48.774Z,18.71
2018-05-16T09:42:19.560Z,19.47
2018-05-16T09:44:50.393Z,20.01
2018-05-16T09:47:21.235Z,20.12
2018-05-16T09:49:52.048Z,19.74
2018-05-16T09:52:22.880Z,20.35
2018-05-16T09:54:53.727Z,20.86
2018-05-16T09:57:24.528Z,22.24
2018-05-16T09:59:55.343Z,23.15
2018-05-16T10:02:26.132Z,23.36
2018-05-16T10:04:57.142Z,24.42
2018-05-16T10:07:27.911Z,23.22
2018-05-16T10:09:58.743Z,22.95
2018-05-16T10:12:29.535Z,22.78
2018-05-16T10:15:00.338Z,22.34
2018-05-16T10:17:31.127Z,21.60
2018-05-16T10:20:01.975Z,21.32
2018-05-16T10:22:32.770Z,21.07
2018-05-16T10:25:03.602Z,20.10
2018-05-16T10:27:34.397Z,19.98
2018-05-16T10:30:05.208Z,20.25
2018-05-16T10:32:35.993Z,20.69
2018-05-16T10:35:13.724Z,20.94
2018-05-16T10:37:44.589Z,20.71
2018-05-16T10:40:15.417Z,21.00
2018-05-16T10:42:46.227Z,21.28
2018-05-16T10:45:17.059Z,21.17
2018-05-16T10:47:47.878Z,21.12
2018-05-16T10:50:18.690Z,20.86
2018-05-16T10:52:49.465Z,21.12
2018-05-16T10:55:20.280Z,20.67
2018-05-16T10:57:51.127Z,20.16
2018-05-16T11:00:21.947Z,20.56
2018-05-16T11:02:52.750Z,19.70
2018-05-16T11:05:23.563Z,19.93
2018-05-16T11:07:54.362Z,19.58
2018-05-16T11:10:25.180Z,19.43
2018-05-16T11:12:55.927Z,18.98
2018-05-16T11:15:26.719Z,18.35
2018-05-16T11:17:58.503Z,18.40
2018-05-16T11:20:29.335Z,18.13
2018-05-16T11:23:00.117Z,18.06
2018-05-16T11:25:30.982Z,17.65
2018-05-16T11:28:01.836Z,16.93
2018-05-16T11:30:32.615Z,16.79
2018-05-16T11:33:03.422Z,16.63
2018-05-16T11:35:34.283Z,16.65
2018-05-16T11:38:05.077Z,16.68
2018-05-16T11:40:35.919Z,16.64
2018-05-16T11:43:06.783Z,16.78
2018-05-16T11:45:37.527Z,17.21
2018-05-16T11:48:08.329Z,17.54
2018-05-16T11:50:39.154Z,17.62
2018-05-16T11:53:10.088Z,17.95
2018-05-16T11:55:40.926Z,17.95
2018-05-16T11:58:11.796Z,17.87
2018-05-16T12:00:42.636Z,17.64
2018-05-16T12:03:13.400Z,16.98
2018-05-16T12:05:44.225Z,16.68
2018-05-16T12:08:15.099Z,16.63
2018-05-16T12:10:46.131Z,16.57
2018-05-16T12:13:16.913Z,16.47
2018-05-16T12:15:47.971Z,16.37
2018-05-16T12:18:18.811Z,16.05
2018-05-16T12:20:49.700Z,15.74
2018-05-16T12:23:20.471Z,15.38
2018-05-16T12:25:51.283Z,14.95
2018-05-16T12:28:22.188Z,14.69
2018-05-16T12:30:52.991Z,14.27
2018-05-16T12:33:23.956Z,13.92
2018-05-16T12:35:55.276Z,13.90
2018-05-16T12:38:26.506Z,13.92
2018-05-16T12:40:57.385Z,14.00
2018-05-16T12:43:29.046Z,14.02
2018-05-16T12:45:59.843Z,13.93
2018-05-16T12:48:30.699Z,13.80
2018-05-16T12:51:01.556Z,13.85
2018-05-16T12:53:32.320Z,13.82
2018-05-16T12:56:03.121Z,13.80
2018-05-16T12:58:34.088Z,13.84
2018-05-16T13:01:04.919Z,14.00
2018-05-16T13:03:35.736Z,14.26
2018-05-16T13:06:06.622Z,14.50
2018-05-16T13:08:37.464Z,14.42
2018-05-16T13:11:08.256Z,14.72
2018-05-16T13:13:39.143Z,15.14
2018-05-16T13:16:09.948Z,15.08
2018-05-16T13:18:40.897Z,15.45
2018-05-16T13:21:12.093Z,15.67
2018-05-16T13:23:42.912Z,15.69
2018-05-16T13:26:13.687Z,15.73
2018-05-16T13:28:44.471Z,15.78
2018-05-16T13:31:15.323Z,15.85
2018-05-16T13:33:46.107Z,15.70
2018-05-16T13:36:17.031Z,15.45
2018-05-16T13:38:47.807Z,15.17
2018-05-16T13:41:18.592Z,15.01
2018-05-16T13:43:50.484Z,14.74
2018-05-16T13:46:21.309Z,14.50
2018-05-16T13:48:52.857Z,14.16
2018-05-16T13:51:23.620Z,14.00
2018-05-16T13:53:54.404Z,13.88
2018-05-16T13:56:25.177Z,13.70
2018-05-16T13:58:55.943Z,13.67
2018-05-16T14:01:26.858Z,13.64
2018-05-16T14:03:57.643Z,13.68
2018-05-16T14:06:29.596Z,13.78
2018-05-16T14:09:00.323Z,13.82
2018-05-16T14:11:31.185Z,13.86
2018-05-16T14:14:01.995Z,13.99
2018-05-16T14:16:32.788Z,14.23
2018-05-16T14:19:03.555Z,14.49
2018-05-16T14:21:34.335Z,14.88
2018-05-16T14:24:05.142Z,15.10
2018-05-16T14:26:37.340Z,15.33
2018-05-16T14:29:08.398Z,15.86
2018-05-16T14:31:39.309Z,16.12
2018-05-16T14:34:10.072Z,16.36
2018-05-16T14:36:41.009Z,16.89
2018-05-16T14:39:12.892Z,16.93
2018-05-16T14:41:43.763Z,16.87
2018-05-16T14:44:15.092Z,17.17
2018-05-16T14:46:46.254Z,17.29
2018-05-16T14:49:17.098Z,18.02
2018-05-16T14:51:48.044Z,19.02
2018-05-16T14:54:18.955Z,20.29
2018-05-16T14:56:49.779Z,20.68
2018-05-16T14:59:20.618Z,20.47
2018-05-16T15:01:51.547Z,20.18
2018-05-16T15:04:22.432Z,20.01
2018-05-16T15:06:53.242Z,22.14
2018-05-16T15:09:27.777Z,20.98
2018-05-16T15:11:58.597Z,19.15
2018-05-16T15:14:29.429Z,19.25
2018-05-16T15:17:00.281Z,19.44
2018-05-16T15:19:31.059Z,19.25
2018-05-16T15:22:01.844Z,19.29
2018-05-16T15:24:32.659Z,19.33
2018-05-16T15:27:03.516Z,19.63
2018-05-16T15:29:34.367Z,20.39
2018-05-16T15:32:05.187Z,21.93
2018-05-16T15:34:36.039Z,20.95
2018-05-16T15:37:06.834Z,20.43
2018-05-16T15:39:37.617Z,19.83
2018-05-16T15:42:08.424Z,19.87
2018-05-16T15:44:39.210Z,20.33
2018-05-16T15:47:10.048Z,19.33
2018-05-16T15:49:40.875Z,18.53
2018-05-16T15:52:11.681Z,18.06
2018-05-16T15:54:42.452Z,17.64
2018-05-16T15:57:13.308Z,17.16
2018-05-16T15:59:44.252Z,16.53
2018-05-16T16:02:15.033Z,16.10
2018-05-16T16:04:45.836Z,15.81
2018-05-16T16:07:16.703Z,15.68
2018-05-16T16:09:47.508Z,15.57
2018-05-16T16:12:18.334Z,15.78
2018-05-16T16:14:49.139Z,15.85
2018-05-16T16:17:19.954Z,16.03
2018-05-16T16:19:50.832Z,16.03
2018-05-16T16:22:21.659Z,15.82
2018-05-16T16:24:52.470Z,15.42
2018-05-16T16:27:23.311Z,15.24
2018-05-16T16:29:54.172Z,14.94
2018-05-16T16:32:25.378Z,14.64
2018-05-16T16:34:56.153Z,14.66
2018-05-16T16:37:27.038Z,14.71
2018-05-16T16:39:57.838Z,14.72
2018-05-16T16:42:28.626Z,14.87
2018-05-16T16:44:59.414Z,14.82
2018-05-16T16:47:30.232Z,14.79
2018-05-16T16:50:01.125Z,14.67
2018-05-16T16:52:31.940Z,14.68
2018-05-16T16:55:02.787Z,14.51
2018-05-16T16:57:33.587Z,14.50
2018-05-16T17:00:04.399Z,14.53
2018-05-16T17:02:35.200Z,14.43
2018-05-16T17:05:05.973Z,14.48
2018-05-16T17:07:36.752Z,14.57
2018-05-16T17:10:07.531Z,14.64
2018-05-16T17:12:38.317Z,14.71
2018-05-16T17:15:09.092Z,14.65
2018-05-16T17:17:39.889Z,14.73
2018-05-16T17:20:10.705Z,14.89
2018-05-16T17:22:41.509Z,15.03
2018-05-16T17:25:12.267Z,14.94
2018-05-16T17:27:43.152Z,14.90
2018-05-16T17:30:14.047Z,14.88
2018-05-16T17:32:44.872Z,14.71
2018-05-16T17:35:15.664Z,14.49
2018-05-16T17:37:46.463Z,14.44
2018-05-16T17:40:17.236Z,14.52
2018-05-16T17:42:48.140Z,14.43
2018-05-16T17:45:19.069Z,14.40
2018-05-16T17:47:49.968Z,14.29
2018-05-16T17:50:20.846Z,14.21
2018-05-16T17:52:51.737Z,14.13
2018-05-16T17:55:22.559Z,14.07
2018-05-16T17:57:53.336Z,14.08
2018-05-16T18:00:24.094Z,13.95
2018-05-16T18:02:54.883Z,13.87
2018-05-16T18:05:25.670Z,13.85
2018-05-16T18:07:56.479Z,13.80
2018-05-16T18:10:27.255Z,13.77
2018-05-16T18:16:27.283Z,13.65
2018-05-16T18:18:58.082Z,13.68
2018-05-16T18:21:28.930Z,13.60
2018-05-16T18:23:59.816Z,13.57
2018-05-16T18:26:30.780Z,13.46
2018-05-16T18:29:01.591Z,13.46
2018-05-16T18:31:33.468Z,13.37
2018-05-16T18:34:04.660Z,13.30
2018-05-16T18:36:35.453Z,13.28
2018-05-16T18:39:06.339Z,13.23
2018-05-16T18:41:37.140Z,13.17
2018-05-16T18:44:07.980Z,13.17
2018-05-16T18:46:38.804Z,13.09
2018-05-16T18:49:09.692Z,13.12
2018-05-16T18:51:40.468Z,13.07
2018-05-16T18:54:11.314Z,13.04
2018-05-16T18:56:42.184Z,12.98
2018-05-16T18:59:13.073Z,12.96
2018-05-16T19:01:44.006Z,13.00
2018-05-16T19:04:14.844Z,13.02
2018-05-16T19:06:45.641Z,12.88
2018-05-16T19:09:16.523Z,12.58
2018-05-16T19:11:47.591Z,12.37
2018-05-16T19:14:18.587Z,12.20
2018-05-16T19:16:49.490Z,12.14
2018-05-16T19:19:26.212Z,12.09
2018-05-16T19:21:57.038Z,12.07
2018-05-16T19:24:27.913Z,11.99
2018-05-16T19:26:58.736Z,11.83
2018-05-16T19:29:29.566Z,11.79
2018-05-16T19:32:00.413Z,11.60
2018-05-16T19:34:31.351Z,11.58
2018-05-16T19:37:02.175Z,11.55
2018-05-16T19:39:34.056Z,11.39
2018-05-16T19:42:04.996Z,11.38
2018-05-16T19:44:35.813Z,11.32
2018-05-16T19:47:07.516Z,11.33
2018-05-16T19:49:38.498Z,11.38
2018-05-16T19:52:09.340Z,11.28
2018-05-16T19:54:40.420Z,11.28
2018-05-16T19:57:11.377Z,11.24
2018-05-16T19:59:42.252Z,11.29
2018-05-16T20:02:13.057Z,11.31
2018-05-16T20:04:44.070Z,11.39
2018-05-16T20:07:14.860Z,11.38
2018-05-16T20:09:45.664Z,11.30
2018-05-16T20:12:16.528Z,11.30
2018-05-16T20:14:47.441Z,11.31
2018-05-16T20:17:18.154Z,11.42
2018-05-16T20:19:48.968Z,11.39
2018-05-16T20:22:19.782Z,11.37
2018-05-16T20:24:53.591Z,11.36
2018-05-16T20:27:24.416Z,11.43
2018-05-16T20:29:55.291Z,11.46
2018-05-16T20:32:26.087Z,11.43
2018-05-16T20:34:56.957Z,11.40
2018-05-16T20:37:27.781Z,11.46
2018-05-16T20:39:58.707Z,11.46
2018-05-16T20:42:29.437Z,11.47
2018-05-16T20:45:00.263Z,11.47
2018-05-16T20:47:31.059Z,11.50
2018-05-16T20:50:01.965Z,11.57
2018-05-16T20:52:32.767Z,11.70
2018-05-16T20:55:03.638Z,11.74
2018-05-16T20:57:34.440Z,11.78
2018-05-16T21:00:05.242Z,11.86
2018-05-16T21:02:36.034Z,11.86
2018-05-16T21:05:06.898Z,11.93
2018-05-16T21:07:37.783Z,11.95
2018-05-16T21:10:08.565Z,11.92
2018-05-16T21:12:39.343Z,12.03
2018-05-16T21:15:10.235Z,12.04
2018-05-16T21:17:41.101Z,12.05
2018-05-16T21:20:11.895Z,12.07
2018-05-16T21:22:42.681Z,12.04
2018-05-16T21:25:13.556Z,12.08
2018-05-16T21:27:44.340Z,12.04
2018-05-16T21:30:15.174Z,12.09
2018-05-16T21:32:45.971Z,12.08
2018-05-16T21:35:16.763Z,12.10
2018-05-16T21:37:47.563Z,12.12
2018-05-16T21:40:18.472Z,12.10
2018-05-16T21:42:49.325Z,12.05
2018-05-16T21:45:20.100Z,12.01
2018-05-16T21:47:50.871Z,11.99
2018-05-16T21:50:21.683Z,11.90
2018-05-16T21:52:52.530Z,11.86
2018-05-16T21:55:23.311Z,11.83
2018-05-16T21:57:54.103Z,11.87
2018-05-16T22:00:24.887Z,11.87
2018-05-16T22:02:55.645Z,11.92
2018-05-16T22:05:26.451Z,11.87
2018-05-16T22:07:57.219Z,11.85
2018-05-16T22:10:28.048Z,11.86
2018-05-16T22:12:58.887Z,11.84
2018-05-16T22:15:29.678Z,11.85
2018-05-16T22:18:00.447Z,11.83
2018-05-16T22:20:31.250Z,11.83
2018-05-16T22:23:02.024Z,11.86
2018-05-16T22:25:32.858Z,11.85
2018-05-16T22:28:03.656Z,11.87
2018-05-16T22:30:40.433Z,11.80
2018-05-16T22:33:17.235Z,11.83
2018-05-16T22:35:54.054Z,11.91
2018-05-16T22:38:30.873Z,11.90
2018-05-16T22:41:07.967Z,11.84
2018-05-16T22:57:00.319Z,11.70
2018-05-16T22:59:31.160Z,11.69
2018-05-16T23:02:01.935Z,11.79
2018-05-16T23:04:32.697Z,11.77
2018-05-16T23:07:03.503Z,11.83
2018-05-16T23:09:34.264Z,11.80
2018-05-16T23:12:05.072Z,11.85
2018-05-16T23:14:35.874Z,11.84
2018-05-16T23:17:06.765Z,11.81
2018-05-16T23:19:37.507Z,11.79
2018-05-16T23:22:08.331Z,11.81
2018-05-16T23:24:39.142Z,11.82
2018-05-16T23:27:09.926Z,11.87
2018-05-16T23:29:47.663Z,11.87
2018-05-16T23:32:18.472Z,11.78
2018-05-16T23:34:49.284Z,11.75
2018-05-16T23:37:20.101Z,11.80
2018-05-16T23:39:50.860Z,11.77
2018-05-16T23:42:21.633Z,11.74
2018-05-16T23:44:52.396Z,11.76
2018-05-16T23:47:23.183Z,11.80
2018-05-16T23:49:54.068Z,11.77
2018-05-16T23:52:24.882Z,11.78
2018-05-16T23:54:55.690Z,11.71
2018-05-16T23:57:26.484Z,11.70
2018-05-16T23:59:57.277Z,11.61
